Time;durP1;ratioP1;P1;durP2;ratioP2;P2;SDS_P1;SDS_P2;PMS_P1;PMS_P2;Temp;Humidity;BMP_temperature;BMP_pressure;BME280_temperature;BME280_humidity;BME280_pressure;Samples;Min_cycle;Max_cycle;Signal;HPM_P1;HPM_P2
2021/07/16 00:01:00;;;;;;;15.25;11.45;;;;;;;20.67;89.15;96382.11;127847;1093;26427;-90
2021/07/16 00:03:32;;;;;;;16.38;11.28;;;;;;;20.73;88.68;96389.59;127853;1093;22806;-91
2021/07/16 00:06:03;;;;;;;13.45;10.73;;;;;;;20.72;88.62;96385.34;127851;1093;22823;-95
2021/07/16 00:08:34;;;;;;;14.10;10.75;;;;;;;20.73;88.46;96378.81;127878;1093;25277;-89
2021/07/16 00:11:06;;;;;;;15.15;10.38;;;;;;;20.82;88.59;96373.23;127826;1093;26821;-91
2021/07/16 00:13:38;;;;;;;15.03;10.83;;;;;;;20.83;87.54;96387.48;127898;1093;22801;-90
2021/07/16 00:16:10;;;;;;;14.35;10.98;;;;;;;20.79;87.56;96390.09;127943;1093;22861;-90
2021/07/16 00:18:42;;;;;;;13.95;10.55;;;;;;;20.74;87.25;96399.23;127885;1093;22798;-90
2021/07/16 00:21:14;;;;;;;17.48;11.20;;;;;;;20.55;87.58;96404.55;127866;1093;22849;-91
2021/07/16 00:23:45;;;;;;;16.63;12.00;;;;;;;20.46;88.10;96417.39;127863;1092;24025;-89
2021/07/16 00:26:18;;;;;;;19.60;12.10;;;;;;;20.55;88.99;96417.20;127846;1093;22786;-90
2021/07/16 00:28:49;;;;;;;14.35;10.15;;;;;;;20.61;88.42;96427.39;127852;1093;26305;-89
2021/07/16 00:31:21;;;;;;;16.15;10.38;;;;;;;20.60;88.72;96427.73;127862;1093;28768;-91
2021/07/16 00:33:52;;;;;;;13.63;11.35;;;;;;;20.67;88.64;96431.38;127849;1092;30199;-89
2021/07/16 00:36:23;;;;;;;15.53;11.10;;;;;;;20.77;88.76;96429.30;127843;1093;22998;-91
2021/07/16 00:38:55;;;;;;;16.63;12.00;;;;;;;20.81;88.69;96436.33;127853;1093;23224;-93
2021/07/16 00:41:26;;;;;;;18.43;13.28;;;;;;;20.87;89.44;96434.17;127857;1093;22816;-90
2021/07/16 00:43:58;;;;;;;18.58;14.10;;;;;;;20.90;88.73;96438.86;127861;1093;23420;-90
2021/07/16 00:46:29;;;;;;;19.53;13.95;;;;;;;20.85;88.85;96436.44;127833;1093;23780;-90
2021/07/16 00:49:00;;;;;;;15.23;11.43;;;;;;;20.77;88.31;96440.86;127852;1093;26283;-90
2021/07/16 00:51:32;;;;;;;16.45;11.98;;;;;;;20.67;88.37;96447.54;127867;1093;22785;-89
2021/07/16 00:54:03;;;;;;;14.90;11.75;;;;;;;20.61;88.65;96448.94;127829;1093;31164;-91
2021/07/16 00:56:34;;;;;;;15.25;11.65;;;;;;;20.58;88.64;96451.55;127847;1093;22799;-92
2021/07/16 00:59:07;;;;;;;15.10;11.77;;;;;;;20.63;89.09;96452.06;127878;1093;22848;-90
2021/07/16 01:01:38;;;;;;;14.48;11.73;;;;;;;20.73;89.37;96448.08;127893;1092;26126;-90
2021/07/16 01:04:09;;;;;;;16.68;12.35;;;;;;;20.74;89.26;96447.73;127913;1093;22926;-92
2021/07/16 01:06:41;;;;;;;18.18;12.70;;;;;;;20.68;89.26;96443.72;127908;1092;22797;-91
2021/07/16 01:09:12;;;;;;;17.65;11.58;;;;;;;20.68;89.52;96427.55;127903;1093;23167;-92
2021/07/16 01:11:44;;;;;;;17.40;12.35;;;;;;;20.69;89.34;96434.53;127851;1093;22849;-88
2021/07/16 01:14:15;;;;;;;15.80;12.05;;;;;;;20.66;89.52;96432.51;127881;1093;22870;-90
2021/07/16 01:16:47;;;;;;;22.08;12.80;;;;;;;20.62;89.78;96425.48;127893;1093;22778;-89
2021/07/16 01:19:42;;;;;;;17.33;12.35;;;;;;;20.57;89.57;96420.36;127852;1093;22925;-90
2021/07/16 01:22:15;;;;;;;14.73;11.30;;;;;;;20.54;89.29;96421.81;127912;1093;23155;-87
2021/07/16 01:24:47;;;;;;;15.90;12.17;;;;;;;20.50;89.82;96417.47;127872;1093;24886;-89
2021/07/16 01:27:20;;;;;;;16.98;11.58;;;;;;;20.47;89.39;96427.03;127845;1093;23630;-92
2021/07/16 01:29:52;;;;;;;15.03;11.90;;;;;;;20.45;89.75;96435.46;127848;1093;22940;-91
2021/07/16 01:32:24;;;;;;;12.33;10.60;;;;;;;20.49;89.86;96435.55;127833;1093;22844;-90
2021/07/16 01:34:55;;;;;;;14.37;10.80;;;;;;;20.49;89.55;96434.77;127830;1093;23456;-93
2021/07/16 01:37:26;;;;;;;15.25;10.93;;;;;;;20.49;89.43;96440.15;127893;1093;23270;-90
2021/07/16 01:39:58;;;;;;;13.80;10.30;;;;;;;20.51;89.78;96454.05;127832;1093;23292;-93
2021/07/16 01:42:37;;;;;;;14.03;10.05;;;;;;;20.43;89.23;96453.09;127864;1093;23186;-91
2021/07/16 01:45:12;;;;;;;14.95;10.55;;;;;;;20.39;89.43;96462.94;127953;1092;22848;-93
2021/07/16 01:47:47;;;;;;;12.98;9.80;;;;;;;20.39;89.63;96465.63;127870;1092;27283;-90
2021/07/16 01:50:19;;;;;;;13.43;9.70;;;;;;;20.46;89.28;96468.56;127840;1093;22812;-89
2021/07/16 01:52:51;;;;;;;14.08;10.35;;;;;;;20.54;89.51;96475.67;127840;1093;26287;-89
2021/07/16 01:55:25;;;;;;;14.95;10.75;;;;;;;20.58;89.16;96465.80;127840;1093;22819;-94
2021/07/16 01:57:58;;;;;;;15.18;10.93;;;;;;;20.59;89.44;96470.05;127843;1092;23330;-92
2021/07/16 02:00:32;;;;;;;14.40;10.80;;;;;;;20.61;89.60;96472.40;127848;1093;22838;-89
2021/07/16 02:03:05;;;;;;;17.45;11.45;;;;;;;20.54;89.56;96481.06;127848;1093;22810;-90
2021/07/16 02:05:38;;;;;;;14.15;10.45;;;;;;;20.46;89.95;96487.41;127863;1093;22826;-92
2021/07/16 02:08:14;;;;;;;15.48;11.43;;;;;;;20.39;90.06;96493.34;127948;1093;22845;-90
2021/07/16 02:10:47;;;;;;;15.48;11.08;;;;;;;20.31;90.34;96485.44;127848;1093;26770;-89
2021/07/16 02:13:19;;;;;;;16.75;12.60;;;;;;;20.25;90.50;96474.11;127870;1093;22756;-92
2021/07/16 02:15:54;;;;;;;17.73;11.90;;;;;;;20.21;91.36;96477.84;127878;1093;22789;-90
2021/07/16 02:18:26;;;;;;;18.88;12.98;;;;;;;20.15;91.84;96480.80;127856;1093;22817;-91
2021/07/16 02:20:58;;;;;;;23.02;13.53;;;;;;;20.12;91.72;96478.77;127916;1093;23344;-94
2021/07/16 02:23:31;;;;;;;17.65;13.13;;;;;;;20.10;92.40;96480.23;127880;1092;26505;-90
2021/07/16 02:26:02;;;;;;;20.55;13.10;;;;;;;20.08;92.39;96482.49;127846;1092;23398;-90
2021/07/16 02:28:35;;;;;;;16.53;12.23;;;;;;;20.11;92.62;96489.88;127856;1093;22816;-90
2021/07/16 02:31:08;;;;;;;18.35;12.38;;;;;;;20.12;92.53;96486.84;127845;1093;29529;-93
2021/07/16 02:33:41;;;;;;;16.48;11.48;;;;;;;20.15;92.78;96496.16;127897;1093;26514;-89
2021/07/16 02:36:12;;;;;;;14.08;11.55;;;;;;;20.14;92.99;96495.38;127892;1093;23930;-90
2021/07/16 02:38:43;;;;;;;13.05;9.60;;;;;;;20.18;92.82;96489.30;127911;1093;24762;-90
2021/07/16 02:41:15;;;;;;;13.63;9.88;;;;;;;20.22;92.74;96474.02;127870;1093;22793;-90
2021/07/16 02:43:46;;;;;;;12.35;9.63;;;;;;;20.25;92.20;96471.42;127857;1093;22823;-89
2021/07/16 02:46:17;;;;;;;12.95;8.95;;;;;;;20.32;92.18;96478.92;127872;1093;27115;-90
2021/07/16 02:48:49;;;;;;;14.27;11.17;;;;;;;20.29;92.28;96472.32;127889;1093;26935;-89
2021/07/16 02:51:20;;;;;;;15.38;11.63;;;;;;;20.29;92.23;96472.32;127829;1093;22868;-92
2021/07/16 02:53:51;;;;;;;17.50;11.63;;;;;;;20.24;92.22;96466.38;127853;1093;22822;-90
2021/07/16 02:56:23;;;;;;;16.60;10.98;;;;;;;20.21;92.34;96462.48;127888;1093;22793;-93
2021/07/16 02:58:54;;;;;;;14.85;11.50;;;;;;;20.17;92.16;96461.61;127829;1093;23481;-90
2021/07/16 03:01:25;;;;;;;18.37;11.97;;;;;;;20.12;92.47;96459.14;127861;1093;25679;-91
2021/07/16 03:03:57;;;;;;;14.48;11.23;;;;;;;20.04;92.54;96462.78;127837;1093;24698;-92
2021/07/16 03:06:28;;;;;;;15.78;11.85;;;;;;;19.97;92.53;96447.20;127826;1093;22858;-89
2021/07/16 03:08:59;;;;;;;17.10;12.15;;;;;;;19.93;93.22;96440.95;127853;1093;22807;-92
2021/07/16 03:11:31;;;;;;;15.83;11.65;;;;;;;19.92;92.92;96439.39;127808;1092;26351;-95
2021/07/16 03:14:02;;;;;;;14.60;11.70;;;;;;;19.94;92.73;96439.82;127868;1093;23601;-90
2021/07/16 03:16:34;;;;;;;14.90;10.95;;;;;;;20.03;92.63;96445.85;127883;1093;23532;-90
2021/07/16 03:19:06;;;;;;;12.98;9.65;;;;;;;19.97;92.04;96441.82;127834;1092;23650;-90
2021/07/16 03:21:37;;;;;;;14.07;9.43;;;;;;;19.96;91.95;96431.41;127860;1093;23933;-92
2021/07/16 03:24:09;;;;;;;12.77;9.80;;;;;;;20.02;92.25;96433.52;127877;1093;23443;-90
2021/07/16 03:26:40;;;;;;;13.05;9.60;;;;;;;20.14;92.10;96432.69;127882;1093;27396;-92
2021/07/16 03:29:13;;;;;;;12.08;9.65;;;;;;;20.22;91.84;96436.34;127908;1093;24708;-90
2021/07/16 03:31:45;;;;;;;15.05;9.60;;;;;;;20.21;91.34;96434.77;127842;1093;24951;-89
2021/07/16 03:34:16;;;;;;;13.15;10.10;;;;;;;20.09;91.29;96431.01;127852;1093;24145;-91
2021/07/16 03:36:47;;;;;;;15.45;9.88;;;;;;;20.01;91.58;96426.58;127860;1093;23191;-90
2021/07/16 03:39:19;;;;;;;14.78;9.80;;;;;;;19.95;91.15;96429.84;127857;1093;26255;-88
2021/07/16 03:41:50;;;;;;;11.70;8.93;;;;;;;19.92;91.33;96428.63;127852;1092;25096;-89
2021/07/16 03:44:21;;;;;;;9.45;7.85;;;;;;;19.91;91.02;96426.28;127813;1092;26377;-92
2021/07/16 03:46:53;;;;;;;10.05;7.20;;;;;;;19.91;91.19;96427.06;127846;1092;23687;-89
2021/07/16 03:49:26;;;;;;;9.83;7.55;;;;;;;20.01;91.03;96434.66;127878;1093;22802;-90
2021/07/16 03:51:58;;;;;;;8.53;6.83;;;;;;;20.11;90.90;96427.97;127855;1093;23086;-95
2021/07/16 03:54:30;;;;;;;11.03;7.40;;;;;;;20.09;90.14;96424.84;127880;1093;25444;-96
2021/07/16 03:57:01;;;;;;;10.08;7.25;;;;;;;20.00;90.12;96430.39;127855;1093;22786;-92
2021/07/16 03:59:33;;;;;;;13.13;7.23;;;;;;;20.01;90.14;96426.58;127824;1093;22842;-96
2021/07/16 04:02:05;;;;;;;9.65;6.58;;;;;;;20.10;90.26;96424.50;127857;1093;23524;-89
2021/07/16 04:04:36;;;;;;;9.98;6.48;;;;;;;20.16;89.93;96425.83;127887;1093;22792;-89
2021/07/16 04:07:12;;;;;;;9.23;5.95;;;;;;;20.26;90.25;96429.91;127857;1092;22795;-92
2021/07/16 04:09:43;;;;;;;8.93;6.10;;;;;;;20.33;89.40;96427.42;127903;1093;22790;-94
2021/07/16 04:12:18;;;;;;;10.53;6.63;;;;;;;20.38;89.46;96439.84;127862;1093;25900;-89
2021/07/16 04:14:52;;;;;;;10.15;6.38;;;;;;;20.38;89.01;96440.63;127870;1093;22945;-90
2021/07/16 04:17:25;;;;;;;9.93;6.18;;;;;;;20.42;89.14;96456.92;127908;1093;22827;-94
2021/07/16 04:19:57;;;;;;;9.13;6.45;;;;;;;20.47;88.99;96459.34;127877;1093;22796;-90
2021/07/16 04:22:29;;;;;;;7.60;5.73;;;;;;;20.59;88.77;96456.59;127848;1093;24702;-93
2021/07/16 04:25:00;;;;;;;10.05;7.53;;;;;;;20.62;88.15;96455.89;127862;1093;23857;-90
2021/07/16 04:27:31;;;;;;;10.53;6.55;;;;;;;20.62;88.28;96455.11;127828;1092;22826;-90
2021/07/16 04:30:03;;;;;;;8.80;7.03;;;;;;;20.68;88.54;96470.66;127846;1093;22820;-89
2021/07/16 04:32:34;;;;;;;8.50;6.60;;;;;;;20.84;88.07;96472.59;127848;1093;22816;-93
2021/07/16 04:35:07;;;;;;;10.43;6.75;;;;;;;20.97;87.94;96466.78;127847;1093;23544;-91
2021/07/16 04:37:41;;;;;;;11.08;7.35;;;;;;;21.14;87.42;96470.23;127903;1093;22845;-92
2021/07/16 04:40:16;;;;;;;10.70;7.25;;;;;;;21.28;87.40;96474.08;127924;1093;22953;-92
2021/07/16 04:42:48;;;;;;;11.55;7.43;;;;;;;21.50;87.02;96483.41;127854;1093;25630;-90
2021/07/16 04:45:20;;;;;;;7.75;6.80;;;;;;;21.67;86.89;96484.94;127845;1093;23997;-93
2021/07/16 04:47:51;;;;;;;11.40;7.43;;;;;;;21.89;86.61;96489.66;127851;1093;25973;-91
2021/07/16 04:50:22;;;;;;;10.68;7.98;;;;;;;22.01;85.72;96490.66;127858;1093;24074;-90
2021/07/16 04:52:54;;;;;;;12.28;8.73;;;;;;;22.12;85.61;96478.20;127877;1092;23076;-90
2021/07/16 04:55:25;;;;;;;12.43;8.30;;;;;;;22.24;85.04;96491.56;127853;1093;25084;-91
2021/07/16 04:57:57;;;;;;;11.73;8.35;;;;;;;22.41;84.94;96490.33;127810;1093;42311;-91
2021/07/16 05:00:28;;;;;;;12.08;8.30;;;;;;;22.57;84.12;96501.82;127818;1093;24284;-89
2021/07/16 05:03:01;;;;;;;11.50;8.68;;;;;;;22.75;84.00;96496.72;127863;1093;23547;-90
2021/07/16 05:05:32;;;;;;;11.25;8.48;;;;;;;23.01;83.67;96498.75;127862;1093;26092;-91
2021/07/16 05:08:04;;;;;;;10.45;7.50;;;;;;;23.30;82.23;96497.28;127843;1093;23455;-91
2021/07/16 05:10:35;;;;;;;9.18;7.05;;;;;;;23.45;80.51;96504.46;127858;1093;23703;-96
2021/07/16 05:13:07;;;;;;;8.98;6.53;;;;;;;23.80;81.64;96506.16;127907;1093;24332;-91
2021/07/16 05:15:38;;;;;;;9.38;7.65;;;;;;;24.10;80.37;96509.64;127847;1093;22819;-90
2021/07/16 05:18:09;;;;;;;10.28;7.18;;;;;;;24.08;79.13;96522.00;127950;1093;24432;-91
2021/07/16 05:20:41;;;;;;;12.70;8.43;;;;;;;23.78;78.24;96524.67;127929;1092;25094;-92
2021/07/16 05:23:12;;;;;;;13.33;7.50;;;;;;;23.57;78.33;96522.42;127924;1093;22853;-90
2021/07/16 05:25:44;;;;;;;12.53;8.23;;;;;;;23.35;78.74;96515.89;127898;1093;23148;-87
2021/07/16 05:28:15;;;;;;;10.55;7.90;;;;;;;23.20;78.46;96530.34;127831;1093;25903;-90
2021/07/16 05:30:47;;;;;;;10.08;7.73;;;;;;;23.17;78.71;96526.44;127855;1092;22791;-90
2021/07/16 05:33:19;;;;;;;11.58;7.33;;;;;;;23.29;79.48;96525.47;127872;1092;24398;-91
2021/07/16 05:35:52;;;;;;;11.85;8.63;;;;;;;23.45;79.66;96534.22;127844;1092;22790;-90
2021/07/16 05:38:25;;;;;;;10.78;7.93;;;;;;;23.75;78.60;96539.72;127875;1093;22796;-91
2021/07/16 05:40:57;;;;;;;12.20;8.48;;;;;;;23.57;77.91;96538.66;127844;1093;22787;-90
2021/07/16 05:43:28;;;;;;;12.25;9.23;;;;;;;23.43;77.82;96541.15;127895;1093;22794;-89
2021/07/16 05:46:00;;;;;;;10.88;8.80;;;;;;;23.18;77.96;96543.45;127880;1093;23483;-90
2021/07/16 05:48:32;;;;;;;12.47;8.67;;;;;;;22.94;78.00;96545.36;127833;1093;27975;-91
2021/07/16 05:51:04;;;;;;;14.20;9.60;;;;;;;22.75;78.01;96546.16;127897;1093;22858;-91
2021/07/16 05:53:36;;;;;;;14.05;10.10;;;;;;;22.56;78.73;96554.30;127871;1092;35969;-96
2021/07/16 05:56:08;;;;;;;14.30;9.65;;;;;;;22.42;79.05;96544.00;127859;1093;24396;-90
2021/07/16 05:58:40;;;;;;;11.98;9.60;;;;;;;22.41;79.15;96560.56;127874;1093;24173;-91
2021/07/16 06:01:11;;;;;;;13.75;8.98;;;;;;;22.36;79.85;96550.02;127921;1092;25445;-91
2021/07/16 06:03:43;;;;;;;10.55;8.13;;;;;;;22.34;80.07;96547.68;127908;1093;23795;-91
2021/07/16 06:06:15;;;;;;;11.03;9.03;;;;;;;22.33;80.57;96554.22;127886;1093;26849;-89
2021/07/16 06:08:46;;;;;;;11.15;9.28;;;;;;;22.35;80.31;96554.64;127869;1093;24372;-90
2021/07/16 06:11:18;;;;;;;14.13;9.38;;;;;;;22.32;80.15;96555.36;127865;1093;26635;-90
2021/07/16 06:13:50;;;;;;;16.58;8.98;;;;;;;22.26;80.60;96559.50;127841;1093;22793;-90
2021/07/16 06:16:23;;;;;;;13.55;9.23;;;;;;;22.26;80.74;96562.20;127877;1093;22813;-94
2021/07/16 06:18:54;;;;;;;10.08;7.90;;;;;;;22.30;80.78;96557.64;127880;1093;23755;-90
2021/07/16 06:21:26;;;;;;;11.55;8.33;;;;;;;22.32;80.21;96551.88;127829;1092;29111;-90
2021/07/16 06:23:58;;;;;;;12.55;9.30;;;;;;;22.26;80.72;96564.12;127889;1093;24405;-89
2021/07/16 06:26:31;;;;;;;13.50;9.20;;;;;;;22.29;80.97;96556.08;127854;1093;22799;-92
2021/07/16 06:29:03;;;;;;;12.15;9.20;;;;;;;22.32;80.22;96552.66;127856;1093;23991;-92
2021/07/16 06:31:35;;;;;;;12.23;8.93;;;;;;;22.42;80.68;96554.02;127838;1092;22798;-91
2021/07/16 06:34:09;;;;;;;9.55;8.00;;;;;;;22.53;80.58;96559.64;127889;1093;23823;-90
2021/07/16 06:36:40;;;;;;;11.10;8.10;;;;;;;22.65;80.60;96556.77;127914;1093;22813;-90
2021/07/16 06:39:12;;;;;;;12.40;8.65;;;;;;;22.75;80.65;96554.27;127885;1092;22788;-92
2021/07/16 06:41:44;;;;;;;11.55;9.08;;;;;;;22.83;80.39;96555.22;127903;1093;25209;-92
2021/07/16 06:44:16;;;;;;;11.75;9.08;;;;;;;22.89;79.80;96552.99;127841;1093;22839;-90
2021/07/16 06:46:48;;;;;;;11.53;9.50;;;;;;;22.89;79.92;96551.06;127826;1093;26783;-89
2021/07/16 06:49:20;;;;;;;11.98;9.00;;;;;;;22.92;79.32;96550.34;127867;1093;22726;-93
2021/07/16 06:51:52;;;;;;;14.10;9.35;;;;;;;22.94;79.48;96556.17;127869;1093;22813;-90
2021/07/16 06:54:25;;;;;;;11.93;9.25;;;;;;;23.08;79.73;96547.52;127854;1092;26295;-93
2021/07/16 06:56:57;;;;;;;15.13;10.03;;;;;;;23.23;79.36;96548.57;127848;1092;23665;-90
2021/07/16 06:59:29;;;;;;;13.20;9.25;;;;;;;23.30;78.63;96548.67;127865;1093;22786;-93
2021/07/16 07:02:01;;;;;;;12.95;9.53;;;;;;;23.36;78.33;96556.11;127875;1093;22845;-91
2021/07/16 07:04:32;;;;;;;13.25;9.35;;;;;;;23.37;78.31;96554.21;127864;1093;24359;-90
2021/07/16 07:07:05;;;;;;;11.98;9.13;;;;;;;23.40;78.08;96551.55;127865;1093;24239;-91
2021/07/16 07:09:37;;;;;;;12.43;8.83;;;;;;;23.29;77.00;96552.52;127845;1093;22845;-90
2021/07/16 07:12:10;;;;;;;12.90;9.18;;;;;;;23.19;77.19;96550.41;127825;1093;23822;-90
2021/07/16 07:14:41;;;;;;;12.48;9.58;;;;;;;23.01;77.04;96556.31;127926;1093;22802;-90
2021/07/16 07:17:13;;;;;;;13.63;9.50;;;;;;;22.97;77.64;96560.88;127942;1093;24438;-92
2021/07/16 07:19:45;;;;;;;16.28;9.95;;;;;;;23.02;77.78;96559.80;127844;1092;22819;-88
2021/07/16 07:22:17;;;;;;;13.38;9.30;;;;;;;23.26;78.64;96550.55;127869;1092;22796;-90
2021/07/16 07:24:48;;;;;;;12.43;8.58;;;;;;;23.98;78.52;96553.98;127857;1093;22820;-90
2021/07/16 07:27:20;;;;;;;11.98;8.60;;;;;;;24.81;77.06;96559.27;127889;1092;23963;-90
2021/07/16 07:29:52;;;;;;;13.45;9.38;;;;;;;26.57;74.81;96548.51;127854;1093;25998;-90
2021/07/16 07:32:23;;;;;;;11.75;8.88;;;;;;;28.29;72.29;96539.20;127851;1093;22838;-92
2021/07/16 07:34:55;;;;;;;12.38;8.25;;;;;;;30.41;65.88;96538.00;127882;1091;23950;-92
2021/07/16 07:37:26;;;;;;;11.03;8.63;;;;;;;31.99;63.15;96537.97;127841;1093;24670;-92
2021/07/16 07:39:58;;;;;;;11.00;8.78;;;;;;;33.62;60.17;96530.91;127841;1093;26430;-96
2021/07/16 07:42:29;;;;;;;9.00;7.20;;;;;;;34.94;54.58;96534.78;127851;1093;35296;-93
2021/07/16 07:45:01;;;;;;;11.10;8.53;;;;;;;34.94;52.48;96523.77;127833;1093;22826;-90
2021/07/16 07:47:33;;;;;;;12.85;8.33;;;;;;;34.38;50.37;96527.75;127863;1093;23682;-90
2021/07/16 07:50:08;;;;;;;9.73;7.90;;;;;;;34.74;50.81;96527.45;127859;1093;22796;-91
2021/07/16 07:52:40;;;;;;;13.18;7.78;;;;;;;35.53;48.12;96527.80;127898;1093;23290;-91
2021/07/16 07:55:13;;;;;;;8.80;7.33;;;;;;;36.03;47.51;96531.62;127941;1092;23952;-92
2021/07/16 07:57:44;;;;;;;7.63;6.78;;;;;;;36.55;46.96;96537.23;127941;1092;22799;-91
2021/07/16 08:00:19;;;;;;;8.53;7.23;;;;;;;37.13;45.31;96535.83;127881;1093;24836;-90
2021/07/16 08:02:50;;;;;;;8.65;7.20;;;;;;;37.28;41.61;96534.05;127848;1093;26778;-91
2021/07/16 08:05:22;;;;;;;9.03;7.20;;;;;;;37.20;41.96;96537.55;127876;1092;23010;-91
2021/07/16 08:07:54;;;;;;;7.90;7.10;;;;;;;37.62;42.07;96548.89;127843;1093;33672;-93
2021/07/16 08:10:26;;;;;;;10.13;7.88;;;;;;;36.51;42.03;96552.40;127843;1092;24019;-93
2021/07/16 08:12:57;;;;;;;8.70;7.43;;;;;;;36.95;44.52;96546.81;127839;1093;23452;-93
2021/07/16 08:15:29;;;;;;;9.90;7.40;;;;;;;37.68;39.70;96558.11;127877;1093;23194;-96
2021/07/16 08:18:00;;;;;;;8.03;6.73;;;;;;;38.17;42.45;96571.11;127863;1093;24211;-90
2021/07/16 08:20:32;;;;;;;9.10;7.20;;;;;;;39.04;42.02;96570.36;127876;1093;27210;-91
2021/07/16 08:23:04;;;;;;;8.63;7.35;;;;;;;40.36;40.84;96564.63;127855;1093;26482;-92
2021/07/16 08:25:35;;;;;;;8.75;7.38;;;;;;;41.41;37.33;96566.92;127864;1093;23672;-90
2021/07/16 08:28:07;;;;;;;9.03;7.58;;;;;;;39.21;37.75;96564.45;127857;1093;22823;-92
2021/07/16 08:30:39;;;;;;;9.00;8.10;;;;;;;36.47;37.77;96551.77;127879;1093;24602;-94
2021/07/16 08:33:11;;;;;;;11.43;9.10;;;;;;;33.81;41.21;96564.23;127923;1093;24585;-89
2021/07/16 08:35:43;;;;;;;11.33;8.45;;;;;;;32.27;43.26;96563.31;127914;1093;23414;-90
2021/07/16 08:38:15;;;;;;;12.48;9.18;;;;;;;32.02;45.46;96569.27;127872;1093;24575;-87
2021/07/16 08:40:47;;;;;;;13.15;9.28;;;;;;;30.80;45.74;96564.86;127874;1092;24459;-90
2021/07/16 08:43:22;;;;;;;11.75;9.93;;;;;;;30.32;49.49;96567.80;127857;1092;27855;-88
2021/07/16 08:45:55;;;;;;;12.83;10.03;;;;;;;32.05;49.80;96568.41;127848;1093;26199;-91
2021/07/16 08:48:28;;;;;;;13.75;9.23;;;;;;;32.49;45.78;96567.19;127883;1093;24244;-91
2021/07/16 08:51:01;;;;;;;13.05;9.53;;;;;;;30.76;46.00;96564.14;127848;1093;23296;-91
2021/07/16 08:53:33;;;;;;;12.98;9.43;;;;;;;29.10;49.04;96572.73;127865;1092;24434;-90
2021/07/16 08:56:08;;;;;;;11.58;8.73;;;;;;;28.57;51.21;96576.49;127901;1093;22981;-91
2021/07/16 08:58:40;;;;;;;11.58;9.33;;;;;;;28.03;52.21;96564.98;127924;1092;22795;-90
2021/07/16 09:01:12;;;;;;;13.68;10.98;;;;;;;27.62;53.18;96568.13;127917;1093;26306;-90
2021/07/16 09:03:58;;;;;;;12.85;10.78;;;;;;;27.30;54.09;96561.88;127920;1093;25194;-91
2021/07/16 09:06:52;;;;;;;14.50;9.90;;;;;;;27.21;54.75;96559.56;127894;1093;22845;-90
2021/07/16 09:09:25;;;;;;;13.13;9.85;;;;;;;27.09;55.52;96559.94;127868;1093;24011;-90
2021/07/16 09:11:59;;;;;;;13.85;10.50;;;;;;;27.09;56.35;96549.83;127877;1093;26290;-91
2021/07/16 09:14:32;;;;;;;13.95;10.58;;;;;;;27.36;56.28;96552.95;127863;1093;27308;-92
2021/07/16 09:17:06;;;;;;;13.43;10.23;;;;;;;27.64;56.57;96549.47;127863;1093;24783;-92
2021/07/16 09:19:40;;;;;;;14.23;10.78;;;;;;;27.77;56.41;96558.80;127893;1093;24657;-91
2021/07/16 09:22:15;;;;;;;16.30;11.00;;;;;;;27.87;55.56;96553.70;127952;1092;22799;-90
2021/07/16 09:24:54;;;;;;;15.93;12.10;;;;;;;27.38;56.27;96552.56;127859;1092;24399;-89
2021/07/16 09:27:34;;;;;;;15.28;11.85;;;;;;;26.89;56.86;96560.27;127855;1093;22960;-91
2021/07/16 09:30:23;;;;;;;14.50;11.85;;;;;;;26.68;57.58;96562.92;127696;1093;23886;-91
2021/07/16 09:32:57;;;;;;;14.43;11.33;;;;;;;26.74;57.38;96561.38;127837;1093;22984;-92
2021/07/16 09:35:32;;;;;;;15.45;11.75;;;;;;;26.66;58.32;96567.20;127739;1093;24441;-91
2021/07/16 09:38:06;;;;;;;17.63;14.05;;;;;;;26.65;58.65;96552.81;127663;1093;24440;-89
2021/07/16 09:40:40;;;;;;;14.55;12.40;;;;;;;26.75;59.68;96562.18;127787;1093;23278;-90
2021/07/16 09:43:19;;;;;;;19.08;14.15;;;;;;;26.88;59.12;96557.91;127979;1093;23032;-90
2021/07/16 09:46:03;;;;;;;17.93;13.88;;;;;;;26.93;59.39;96557.55;127754;1093;24343;-90
2021/07/16 09:48:36;;;;;;;20.45;13.98;;;;;;;26.97;58.68;96555.61;127805;1093;22901;-91
2021/07/16 09:51:17;;;;;;;16.13;13.03;;;;;;;27.13;58.25;96566.93;127801;1093;22796;-92
2021/07/16 09:53:54;;;;;;;16.90;13.50;;;;;;;27.23;57.98;96570.84;127822;1093;23574;-88
2021/07/16 09:56:28;;;;;;;17.73;13.75;;;;;;;27.43;58.95;96565.78;127827;1093;22861;-91
2021/07/16 09:59:05;;;;;;;18.58;14.48;;;;;;;27.62;58.20;96559.95;127730;1093;26556;-95
2021/07/16 10:01:40;;;;;;;22.18;16.63;;;;;;;27.36;58.30;96573.96;127851;1093;25421;-90
2021/07/16 10:04:19;;;;;;;20.93;15.65;;;;;;;27.34;58.54;96568.13;127806;1093;24335;-90
2021/07/16 10:06:53;;;;;;;18.03;15.83;;;;;;;27.15;57.61;96564.59;127745;1093;23647;-90
2021/07/16 10:09:26;;;;;;;17.18;13.90;;;;;;;26.89;57.45;96578.54;127902;1093;26334;-90
2021/07/16 10:12:01;;;;;;;19.83;14.80;;;;;;;27.04;57.96;96573.93;127867;1093;25258;-90
2021/07/16 10:14:34;;;;;;;18.37;13.67;;;;;;;27.23;57.94;96576.28;127878;1093;22848;-90
2021/07/16 10:17:06;;;;;;;18.60;14.55;;;;;;;27.56;57.96;96577.84;127878;1093;24889;-91
2021/07/16 10:19:38;;;;;;;22.83;15.08;;;;;;;27.75;57.68;96573.98;127836;1093;23281;-91
2021/07/16 10:22:10;;;;;;;20.85;14.30;;;;;;;27.70;56.38;96569.69;127929;1093;24721;-91
2021/07/16 10:24:45;;;;;;;15.95;13.20;;;;;;;27.54;55.59;96573.95;127910;1093;22848;-94
2021/07/16 10:27:24;;;;;;;16.18;13.10;;;;;;;27.57;57.19;96570.45;127868;1093;22799;-89
2021/07/16 10:30:09;;;;;;;18.30;12.85;;;;;;;27.75;57.69;96558.41;127838;1093;26509;-90
2021/07/16 10:32:49;;;;;;;16.17;12.40;;;;;;;28.13;57.97;96560.66;127874;1093;22799;-92
2021/07/16 10:35:20;;;;;;;;;;;;;;;28.26;57.28;96561.78;127899;1093;22813;-92
2021/07/16 10:37:55;;;;;;;20.78;14.83;;;;;;;28.11;57.30;96561.05;127828;1092;30177;-90
2021/07/16 10:40:43;;;;;;;19.20;14.45;;;;;;;28.15;57.54;96566.48;127871;1093;23591;-93
2021/07/16 10:43:41;;;;;;;20.88;14.65;;;;;;;28.09;56.05;96566.13;127888;1093;24738;-89
2021/07/16 10:46:34;;;;;;;18.63;13.33;;;;;;;27.97;55.63;96563.81;127905;1093;23839;-90
2021/07/16 10:49:08;;;;;;;17.95;13.30;;;;;;;27.95;56.26;96561.48;127890;1093;25265;-91
2021/07/16 10:51:42;;;;;;;18.53;14.28;;;;;;;28.16;56.19;96555.22;127938;1093;22791;-89
2021/07/16 10:54:17;;;;;;;17.78;14.28;;;;;;;28.23;55.09;96552.45;127896;1093;22799;-89
2021/07/16 10:56:49;;;;;;;19.43;14.57;;;;;;;28.12;54.43;96551.70;127879;1093;26636;-88
2021/07/16 10:59:48;;;;;;;19.33;14.98;;;;;;;27.89;55.05;96567.73;127859;1093;24124;-90
2021/07/16 11:02:44;;;;;;;19.90;15.60;;;;;;;27.76;55.85;96564.64;127833;1093;23740;-89
2021/07/16 11:05:50;;;;;;;20.78;15.85;;;;;;;27.33;55.28;96566.58;127869;1093;22813;-90
2021/07/16 11:08:58;;;;;;;20.60;15.85;;;;;;;26.81;56.65;96571.51;127862;1093;22811;-93
2021/07/16 11:11:41;;;;;;;21.98;16.48;;;;;;;26.71;57.75;96569.53;127868;1093;23691;-95
2021/07/16 11:14:25;;;;;;;22.35;15.75;;;;;;;26.77;58.45;96573.45;127915;1091;26629;-94
2021/07/16 11:17:05;;;;;;;20.70;15.18;;;;;;;26.96;59.26;96578.54;127905;1093;24382;-90
2021/07/16 11:19:36;;;;;;;;;;;;;;;27.14;59.82;96575.88;127852;1093;25049;-89
2021/07/16 11:22:09;;;;;;;22.35;14.45;;;;;;;27.16;59.30;96581.70;127895;1093;23842;-91
2021/07/16 11:24:43;;;;;;;18.85;14.63;;;;;;;27.27;59.72;96576.28;127945;1092;22768;-90
2021/07/16 11:27:20;;;;;;;20.83;14.15;;;;;;;27.56;59.88;96583.28;127904;1093;22807;-90
2021/07/16 11:29:53;;;;;;;17.03;12.95;;;;;;;27.82;59.44;96573.19;127870;1093;22849;-90
2021/07/16 11:32:27;;;;;;;17.60;12.48;;;;;;;28.02;58.45;96577.83;127873;1093;23980;-90
2021/07/16 11:35:01;;;;;;;15.93;12.33;;;;;;;28.12;58.40;96580.91;127876;1093;22839;-89
2021/07/16 11:37:40;;;;;;;17.67;12.57;;;;;;;28.06;58.35;96583.27;127881;1093;23556;-92
2021/07/16 11:40:17;;;;;;;16.08;12.63;;;;;;;28.29;59.18;96601.91;127888;1093;24021;-91
2021/07/16 11:42:52;;;;;;;17.70;11.40;;;;;;;28.44;57.63;96598.00;127853;1093;36430;-90